sensor_id;sensor_type;location;lat;lon;timestamp;P1;durP1;ratioP1;P2;durP2;ratioP2
54454;SDS011;40364;52.270;10.546;2023-01-24T00:02:08;25.50;;;10.90;;
54454;SDS011;40364;52.270;10.546;2023-01-24T00:04:36;27.40;;;10.70;;
54454;SDS011;40364;52.270;10.546;2023-01-24T00:07:03;26.90;;;10.98;;
54454;SDS011;40364;52.270;10.546;2023-01-24T00:09:30;25.52;;;10.90;;
54454;SDS011;40364;52.270;10.546;2023-01-24T00:11:56;21.80;;;9.07;;
54454;SDS011;40364;52.270;10.546;2023-01-24T00:14:23;32.58;;;12.40;;
54454;SDS011;40364;52.270;10.546;2023-01-24T00:16:50;25.67;;;12.27;;
54454;SDS011;40364;52.270;10.546;2023-01-24T00:19:17;27.95;;;11.50;;
54454;SDS011;40364;52.270;10.546;2023-01-24T00:21:45;30.67;;;11.68;;
54454;SDS011;40364;52.270;10.546;2023-01-24T00:24:11;28.45;;;12.02;;
54454;SDS011;40364;52.270;10.546;2023-01-24T00:26:38;33.80;;;12.48;;
54454;SDS011;40364;52.270;10.546;2023-01-24T00:29:05;25.30;;;10.98;;
54454;SDS011;40364;52.270;10.546;2023-01-24T00:31:32;26.90;;;11.07;;
54454;SDS011;40364;52.270;10.546;2023-01-24T00:33:58;27.55;;;11.02;;
54454;SDS011;40364;52.270;10.546;2023-01-24T00:36:26;28.95;;;11.40;;
54454;SDS011;40364;52.270;10.546;2023-01-24T00:38:54;29.73;;;12.70;;
54454;SDS011;40364;52.270;10.546;2023-01-24T00:41:21;27.85;;;11.77;;
54454;SDS011;40364;52.270;10.546;2023-01-24T00:43:47;28.27;;;11.30;;
54454;SDS011;40364;52.270;10.546;2023-01-24T00:46:14;27.83;;;11.13;;
54454;SDS011;40364;52.270;10.546;2023-01-24T00:48:41;25.27;;;11.07;;
54454;SDS011;40364;52.270;10.546;2023-01-24T00:51:07;27.85;;;11.73;;
54454;SDS011;40364;52.270;10.546;2023-01-24T00:53:34;27.17;;;12.70;;
54454;SDS011;40364;52.270;10.546;2023-01-24T00:56:02;27.70;;;10.98;;
54454;SDS011;40364;52.270;10.546;2023-01-24T00:58:31;27.27;;;11.15;;
54454;SDS011;40364;52.270;10.546;2023-01-24T01:00:58;29.77;;;12.38;;
54454;SDS011;40364;52.270;10.546;2023-01-24T01:03:25;30.63;;;12.75;;
54454;SDS011;40364;52.270;10.546;2023-01-24T01:05:59;26.48;;;11.63;;
54454;SDS011;40364;52.270;10.546;2023-01-24T01:08:26;26.35;;;11.13;;
54454;SDS011;40364;52.270;10.546;2023-01-24T01:10:53;32.40;;;11.63;;
54454;SDS011;40364;52.270;10.546;2023-01-24T01:13:21;30.55;;;12.45;;
54454;SDS011;40364;52.270;10.546;2023-01-24T01:15:48;30.05;;;11.95;;
54454;SDS011;40364;52.270;10.546;2023-01-24T01:18:15;25.05;;;10.98;;
54454;SDS011;40364;52.270;10.546;2023-01-24T01:20:42;28.73;;;11.65;;
54454;SDS011;40364;52.270;10.546;2023-01-24T01:23:15;26.75;;;11.65;;
54454;SDS011;40364;52.270;10.546;2023-01-24T01:25:41;28.55;;;12.13;;
54454;SDS011;40364;52.270;10.546;2023-01-24T01:28:08;29.77;;;12.15;;
54454;SDS011;40364;52.270;10.546;2023-01-24T01:30:36;26.35;;;10.95;;
54454;SDS011;40364;52.270;10.546;2023-01-24T01:33:03;26.60;;;11.45;;
54454;SDS011;40364;52.270;10.546;2023-01-24T01:35:30;28.70;;;11.43;;
54454;SDS011;40364;52.270;10.546;2023-01-24T01:37:57;28.05;;;11.43;;
54454;SDS011;40364;52.270;10.546;2023-01-24T01:40:23;27.17;;;11.23;;
54454;SDS011;40364;52.270;10.546;2023-01-24T01:42:50;28.00;;;12.15;;
54454;SDS011;40364;52.270;10.546;2023-01-24T01:45:29;29.90;;;11.50;;
54454;SDS011;40364;52.270;10.546;2023-01-24T01:48:02;29.25;;;11.00;;
54454;SDS011;40364;52.270;10.546;2023-01-24T01:50:38;30.08;;;11.95;;
54454;SDS011;40364;52.270;10.546;2023-01-24T01:53:07;25.20;;;10.20;;
54454;SDS011;40364;52.270;10.546;2023-01-24T01:55:35;25.00;;;11.20;;
54454;SDS011;40364;52.270;10.546;2023-01-24T01:58:04;26.15;;;11.50;;
54454;SDS011;40364;52.270;10.546;2023-01-24T02:00:32;27.33;;;12.27;;
54454;SDS011;40364;52.270;10.546;2023-01-24T02:03:02;32.47;;;12.60;;
54454;SDS011;40364;52.270;10.546;2023-01-24T02:05:56;28.00;;;11.70;;
54454;SDS011;40364;52.270;10.546;2023-01-24T02:08:23;22.33;;;10.07;;
54454;SDS011;40364;52.270;10.546;2023-01-24T02:10:50;27.02;;;11.00;;
54454;SDS011;40364;52.270;10.546;2023-01-24T02:13:36;26.10;;;11.63;;
54454;SDS011;40364;52.270;10.546;2023-01-24T02:16:08;26.17;;;11.25;;
54454;SDS011;40364;52.270;10.546;2023-01-24T02:18:36;28.88;;;11.43;;
54454;SDS011;40364;52.270;10.546;2023-01-24T02:21:06;27.23;;;11.85;;
54454;SDS011;40364;52.270;10.546;2023-01-24T02:23:35;27.75;;;11.23;;
54454;SDS011;40364;52.270;10.546;2023-01-24T02:26:11;29.30;;;12.17;;
54454;SDS011;40364;52.270;10.546;2023-01-24T02:28:42;26.63;;;11.77;;
54454;SDS011;40364;52.270;10.546;2023-01-24T02:31:12;26.98;;;11.18;;
54454;SDS011;40364;52.270;10.546;2023-01-24T02:33:39;24.63;;;11.30;;
54454;SDS011;40364;52.270;10.546;2023-01-24T02:36:14;26.83;;;10.52;;
54454;SDS011;40364;52.270;10.546;2023-01-24T02:38:46;29.17;;;12.27;;
54454;SDS011;40364;52.270;10.546;2023-01-24T02:41:21;28.27;;;11.65;;
54454;SDS011;40364;52.270;10.546;2023-01-24T02:43:51;30.15;;;11.75;;
54454;SDS011;40364;52.270;10.546;2023-01-24T02:46:24;29.10;;;11.57;;
54454;SDS011;40364;52.270;10.546;2023-01-24T02:48:51;24.75;;;11.27;;
54454;SDS011;40364;52.270;10.546;2023-01-24T02:51:17;28.17;;;11.18;;
54454;SDS011;40364;52.270;10.546;2023-01-24T02:54:01;25.35;;;10.60;;
54454;SDS011;40364;52.270;10.546;2023-01-24T02:56:29;27.48;;;12.15;;
54454;SDS011;40364;52.270;10.546;2023-01-24T02:59:13;29.52;;;11.20;;
54454;SDS011;40364;52.270;10.546;2023-01-24T03:01:39;23.67;;;10.13;;
54454;SDS011;40364;52.270;10.546;2023-01-24T03:04:06;21.48;;;9.88;;
54454;SDS011;40364;52.270;10.546;2023-01-24T03:06:35;26.80;;;10.95;;
54454;SDS011;40364;52.270;10.546;2023-01-24T03:09:02;28.13;;;12.07;;
54454;SDS011;40364;52.270;10.546;2023-01-24T03:11:44;27.95;;;11.77;;
54454;SDS011;40364;52.270;10.546;2023-01-24T03:14:11;27.27;;;10.70;;
54454;SDS011;40364;52.270;10.546;2023-01-24T03:16:55;23.15;;;11.35;;
54454;SDS011;40364;52.270;10.546;2023-01-24T03:19:39;20.92;;;10.10;;
54454;SDS011;40364;52.270;10.546;2023-01-24T03:22:23;25.40;;;10.43;;
54454;SDS011;40364;52.270;10.546;2023-01-24T03:25:07;25.85;;;11.82;;
54454;SDS011;40364;52.270;10.546;2023-01-24T03:27:52;29.75;;;11.35;;
54454;SDS011;40364;52.270;10.546;2023-01-24T03:30:36;24.23;;;10.30;;
54454;SDS011;40364;52.270;10.546;2023-01-24T03:33:20;25.10;;;10.13;;
54454;SDS011;40364;52.270;10.546;2023-01-24T03:36:05;25.08;;;10.32;;
54454;SDS011;40364;52.270;10.546;2023-01-24T03:38:38;23.85;;;10.32;;
54454;SDS011;40364;52.270;10.546;2023-01-24T03:41:22;25.48;;;11.15;;
54454;SDS011;40364;52.270;10.546;2023-01-24T03:43:50;28.92;;;11.48;;
54454;SDS011;40364;52.270;10.546;2023-01-24T03:46:17;22.75;;;10.07;;
54454;SDS011;40364;52.270;10.546;2023-01-24T03:48:44;21.80;;;10.13;;
54454;SDS011;40364;52.270;10.546;2023-01-24T03:51:10;22.63;;;9.95;;
54454;SDS011;40364;52.270;10.546;2023-01-24T03:53:55;22.92;;;10.27;;
54454;SDS011;40364;52.270;10.546;2023-01-24T03:56:21;26.30;;;10.57;;
54454;SDS011;40364;52.270;10.546;2023-01-24T03:58:48;22.92;;;10.75;;
54454;SDS011;40364;52.270;10.546;2023-01-24T04:01:20;25.50;;;10.90;;
54454;SDS011;40364;52.270;10.546;2023-01-24T04:03:46;24.83;;;10.48;;
54454;SDS011;40364;52.270;10.546;2023-01-24T04:06:13;24.50;;;9.95;;
54454;SDS011;40364;52.270;10.546;2023-01-24T04:08:39;19.83;;;9.32;;
54454;SDS011;40364;52.270;10.546;2023-01-24T04:11:06;26.52;;;10.23;;
54454;SDS011;40364;52.270;10.546;2023-01-24T04:13:33;24.08;;;10.15;;
54454;SDS011;40364;52.270;10.546;2023-01-24T04:16:00;23.23;;;10.02;;
54454;SDS011;40364;52.270;10.546;2023-01-24T04:18:28;23.92;;;11.00;;
54454;SDS011;40364;52.270;10.546;2023-01-24T04:20:54;22.52;;;10.07;;
54454;SDS011;40364;52.270;10.546;2023-01-24T04:23:21;25.50;;;11.43;;
54454;SDS011;40364;52.270;10.546;2023-01-24T04:25:50;24.27;;;9.80;;
54454;SDS011;40364;52.270;10.546;2023-01-24T04:28:19;24.58;;;9.88;;
54454;SDS011;40364;52.270;10.546;2023-01-24T04:30:46;22.67;;;9.68;;
54454;SDS011;40364;52.270;10.546;2023-01-24T04:33:13;26.23;;;10.52;;
54454;SDS011;40364;52.270;10.546;2023-01-24T04:35:41;22.40;;;9.00;;
54454;SDS011;40364;52.270;10.546;2023-01-24T04:38:08;24.25;;;10.48;;
54454;SDS011;40364;52.270;10.546;2023-01-24T04:40:34;21.70;;;9.45;;
54454;SDS011;40364;52.270;10.546;2023-01-24T04:43:01;21.63;;;9.32;;
54454;SDS011;40364;52.270;10.546;2023-01-24T04:45:28;21.38;;;9.30;;
54454;SDS011;40364;52.270;10.546;2023-01-24T04:47:55;20.88;;;9.35;;
54454;SDS011;40364;52.270;10.546;2023-01-24T04:50:21;23.42;;;9.50;;
54454;SDS011;40364;52.270;10.546;2023-01-24T04:52:50;22.70;;;9.50;;
54454;SDS011;40364;52.270;10.546;2023-01-24T04:55:17;23.35;;;9.90;;
54454;SDS011;40364;52.270;10.546;2023-01-24T04:57:43;21.45;;;9.30;;
54454;SDS011;40364;52.270;10.546;2023-01-24T05:03:49;23.58;;;8.82;;
54454;SDS011;40364;52.270;10.546;2023-01-24T05:07:14;18.67;;;8.23;;
54454;SDS011;40364;52.270;10.546;2023-01-24T05:10:37;20.40;;;8.88;;
54454;SDS011;40364;52.270;10.546;2023-01-24T05:13:03;25.85;;;8.55;;
54454;SDS011;40364;52.270;10.546;2023-01-24T05:15:30;16.23;;;8.65;;
54454;SDS011;40364;52.270;10.546;2023-01-24T05:17:57;16.27;;;8.05;;
54454;SDS011;40364;52.270;10.546;2023-01-24T05:20:24;20.52;;;9.23;;
54454;SDS011;40364;52.270;10.546;2023-01-24T05:22:51;17.02;;;8.23;;
54454;SDS011;40364;52.270;10.546;2023-01-24T05:25:17;19.80;;;8.27;;
54454;SDS011;40364;52.270;10.546;2023-01-24T05:27:46;18.58;;;8.25;;
54454;SDS011;40364;52.270;10.546;2023-01-24T05:30:13;20.45;;;8.43;;
54454;SDS011;40364;52.270;10.546;2023-01-24T05:32:39;19.85;;;8.55;;
54454;SDS011;40364;52.270;10.546;2023-01-24T05:35:06;17.15;;;8.88;;
54454;SDS011;40364;52.270;10.546;2023-01-24T05:37:35;18.35;;;8.35;;
54454;SDS011;40364;52.270;10.546;2023-01-24T05:40:03;19.38;;;7.78;;
54454;SDS011;40364;52.270;10.546;2023-01-24T05:42:33;16.10;;;7.40;;
54454;SDS011;40364;52.270;10.546;2023-01-24T05:45:01;19.92;;;8.77;;
54454;SDS011;40364;52.270;10.546;2023-01-24T05:47:28;16.42;;;7.75;;
54454;SDS011;40364;52.270;10.546;2023-01-24T05:49:55;16.67;;;7.80;;
54454;SDS011;40364;52.270;10.546;2023-01-24T05:52:21;13.52;;;6.78;;
54454;SDS011;40364;52.270;10.546;2023-01-24T05:54:48;13.52;;;6.63;;
54454;SDS011;40364;52.270;10.546;2023-01-24T05:57:15;11.52;;;5.90;;
54454;SDS011;40364;52.270;10.546;2023-01-24T05:59:43;15.23;;;6.20;;
54454;SDS011;40364;52.270;10.546;2023-01-24T06:02:11;12.48;;;6.50;;
54454;SDS011;40364;52.270;10.546;2023-01-24T06:04:38;15.43;;;6.45;;
54454;SDS011;40364;52.270;10.546;2023-01-24T06:07:05;12.30;;;5.85;;
54454;SDS011;40364;52.270;10.546;2023-01-24T06:09:32;13.30;;;6.28;;
54454;SDS011;40364;52.270;10.546;2023-01-24T06:11:58;13.70;;;6.40;;
54454;SDS011;40364;52.270;10.546;2023-01-24T06:14:25;13.38;;;6.30;;
54454;SDS011;40364;52.270;10.546;2023-01-24T06:16:52;14.13;;;6.25;;
54454;SDS011;40364;52.270;10.546;2023-01-24T06:19:20;11.60;;;5.95;;
54454;SDS011;40364;52.270;10.546;2023-01-24T06:21:48;14.70;;;6.07;;
54454;SDS011;40364;52.270;10.546;2023-01-24T06:24:21;10.18;;;5.18;;
54454;SDS011;40364;52.270;10.546;2023-01-24T06:26:49;9.55;;;5.13;;
54454;SDS011;40364;52.270;10.546;2023-01-24T06:29:17;10.57;;;5.20;;
54454;SDS011;40364;52.270;10.546;2023-01-24T06:31:47;9.90;;;5.03;;
54454;SDS011;40364;52.270;10.546;2023-01-24T06:37:26;10.27;;;4.78;;
54454;SDS011;40364;52.270;10.546;2023-01-24T06:39:58;11.77;;;5.20;;
54454;SDS011;40364;52.270;10.546;2023-01-24T06:42:25;8.80;;;4.47;;
54454;SDS011;40364;52.270;10.546;2023-01-24T06:44:53;12.85;;;4.68;;
54454;SDS011;40364;52.270;10.546;2023-01-24T06:47:19;10.18;;;4.07;;
54454;SDS011;40364;52.270;10.546;2023-01-24T06:49:46;8.18;;;4.45;;
54454;SDS011;40364;52.270;10.546;2023-01-24T06:52:14;9.32;;;4.70;;
54454;SDS011;40364;52.270;10.546;2023-01-24T06:54:41;8.85;;;4.90;;
54454;SDS011;40364;52.270;10.546;2023-01-24T06:57:08;11.18;;;4.80;;
54454;SDS011;40364;52.270;10.546;2023-01-24T06:59:35;9.65;;;4.60;;
54454;SDS011;40364;52.270;10.546;2023-01-24T07:02:01;8.82;;;4.47;;
54454;SDS011;40364;52.270;10.546;2023-01-24T07:04:28;6.10;;;3.80;;
54454;SDS011;40364;52.270;10.546;2023-01-24T07:06:55;8.88;;;5.07;;
54454;SDS011;40364;52.270;10.546;2023-01-24T07:09:23;8.05;;;4.63;;
54454;SDS011;40364;52.270;10.546;2023-01-24T07:11:50;6.70;;;3.47;;
54454;SDS011;40364;52.270;10.546;2023-01-24T07:14:20;10.38;;;4.15;;
54454;SDS011;40364;52.270;10.546;2023-01-24T07:16:47;8.75;;;3.75;;
54454;SDS011;40364;52.270;10.546;2023-01-24T07:19:15;7.10;;;3.70;;
54454;SDS011;40364;52.270;10.546;2023-01-24T07:21:43;7.97;;;3.92;;
54454;SDS011;40364;52.270;10.546;2023-01-24T07:24:12;6.20;;;3.72;;
54454;SDS011;40364;52.270;10.546;2023-01-24T07:26:42;7.78;;;3.78;;
54454;SDS011;40364;52.270;10.546;2023-01-24T07:29:09;7.65;;;4.13;;
54454;SDS011;40364;52.270;10.546;2023-01-24T07:31:36;6.95;;;3.47;;
54454;SDS011;40364;52.270;10.546;2023-01-24T07:34:03;6.13;;;3.60;;
54454;SDS011;40364;52.270;10.546;2023-01-24T07:36:30;6.55;;;3.70;;
54454;SDS011;40364;52.270;10.546;2023-01-24T07:38:56;7.65;;;3.40;;
54454;SDS011;40364;52.270;10.546;2023-01-24T07:41:23;8.35;;;3.75;;
54454;SDS011;40364;52.270;10.546;2023-01-24T07:43:51;8.65;;;3.63;;
54454;SDS011;40364;52.270;10.546;2023-01-24T07:46:18;6.35;;;3.60;;
54454;SDS011;40364;52.270;10.546;2023-01-24T07:48:45;6.25;;;3.58;;
54454;SDS011;40364;52.270;10.546;2023-01-24T07:51:12;6.57;;;4.00;;
54454;SDS011;40364;52.270;10.546;2023-01-24T07:53:39;5.13;;;3.30;;
54454;SDS011;40364;52.270;10.546;2023-01-24T07:56:06;6.00;;;3.42;;
54454;SDS011;40364;52.270;10.546;2023-01-24T07:58:33;4.90;;;3.38;;
54454;SDS011;40364;52.270;10.546;2023-01-24T08:01:01;5.25;;;3.00;;
54454;SDS011;40364;52.270;10.546;2023-01-24T08:03:28;5.72;;;3.30;;
54454;SDS011;40364;52.270;10.546;2023-01-24T08:05:55;5.85;;;3.47;;
54454;SDS011;40364;52.270;10.546;2023-01-24T08:08:22;6.07;;;3.30;;
54454;SDS011;40364;52.270;10.546;2023-01-24T08:10:48;8.40;;;4.32;;
54454;SDS011;40364;52.270;10.546;2023-01-24T08:13:15;7.05;;;4.30;;
54454;SDS011;40364;52.270;10.546;2023-01-24T08:15:42;6.35;;;3.95;;
54454;SDS011;40364;52.270;10.546;2023-01-24T08:18:10;7.60;;;4.15;;
54454;SDS011;40364;52.270;10.546;2023-01-24T08:20:37;6.60;;;4.10;;
54454;SDS011;40364;52.270;10.546;2023-01-24T08:23:03;7.72;;;4.22;;
54454;SDS011;40364;52.270;10.546;2023-01-24T08:25:30;7.63;;;4.30;;
54454;SDS011;40364;52.270;10.546;2023-01-24T08:27:59;8.38;;;4.28;;
54454;SDS011;40364;52.270;10.546;2023-01-24T08:30:25;7.22;;;4.07;;
54454;SDS011;40364;52.270;10.546;2023-01-24T08:32:59;8.25;;;4.75;;
54454;SDS011;40364;52.270;10.546;2023-01-24T08:35:32;8.02;;;4.28;;
54454;SDS011;40364;52.270;10.546;2023-01-24T08:37:59;6.97;;;4.57;;
54454;SDS011;40364;52.270;10.546;2023-01-24T08:40:26;7.90;;;4.28;;
54454;SDS011;40364;52.270;10.546;2023-01-24T08:42:52;8.20;;;4.18;;
54454;SDS011;40364;52.270;10.546;2023-01-24T08:45:19;7.95;;;4.40;;
54454;SDS011;40364;52.270;10.546;2023-01-24T08:47:50;6.40;;;4.07;;
54454;SDS011;40364;52.270;10.546;2023-01-24T08:50:17;7.05;;;3.63;;
54454;SDS011;40364;52.270;10.546;2023-01-24T08:52:46;8.63;;;4.10;;
54454;SDS011;40364;52.270;10.546;2023-01-24T08:55:13;7.50;;;4.38;;
54454;SDS011;40364;52.270;10.546;2023-01-24T08:57:40;7.55;;;4.40;;
54454;SDS011;40364;52.270;10.546;2023-01-24T09:00:08;6.38;;;3.97;;
54454;SDS011;40364;52.270;10.546;2023-01-24T09:02:36;6.95;;;4.45;;
54454;SDS011;40364;52.270;10.546;2023-01-24T09:05:03;6.68;;;4.10;;
54454;SDS011;40364;52.270;10.546;2023-01-24T09:07:31;7.15;;;4.13;;
54454;SDS011;40364;52.270;10.546;2023-01-24T09:10:00;7.85;;;4.50;;
54454;SDS011;40364;52.270;10.546;2023-01-24T09:12:27;7.20;;;3.83;;
54454;SDS011;40364;52.270;10.546;2023-01-24T09:14:54;5.85;;;3.72;;
54454;SDS011;40364;52.270;10.546;2023-01-24T09:17:21;11.90;;;4.90;;
54454;SDS011;40364;52.270;10.546;2023-01-24T09:19:47;11.32;;;4.45;;
54454;SDS011;40364;52.270;10.546;2023-01-24T09:22:14;8.05;;;4.63;;
54454;SDS011;40364;52.270;10.546;2023-01-24T09:24:41;8.05;;;4.18;;
54454;SDS011;40364;52.270;10.546;2023-01-24T09:27:10;7.25;;;4.03;;
54454;SDS011;40364;52.270;10.546;2023-01-24T09:29:37;8.88;;;4.53;;
54454;SDS011;40364;52.270;10.546;2023-01-24T09:32:04;7.35;;;4.38;;
54454;SDS011;40364;52.270;10.546;2023-01-24T09:34:31;7.68;;;3.95;;
54454;SDS011;40364;52.270;10.546;2023-01-24T09:36:58;8.23;;;4.43;;
54454;SDS011;40364;52.270;10.546;2023-01-24T09:39:25;7.93;;;4.40;;
54454;SDS011;40364;52.270;10.546;2023-01-24T09:41:55;8.45;;;4.13;;
54454;SDS011;40364;52.270;10.546;2023-01-24T09:44:31;8.98;;;3.90;;
54454;SDS011;40364;52.270;10.546;2023-01-24T09:47:07;6.03;;;3.53;;
54454;SDS011;40364;52.270;10.546;2023-01-24T09:49:44;6.22;;;3.92;;
54454;SDS011;40364;52.270;10.546;2023-01-24T09:52:18;9.07;;;3.75;;
54454;SDS011;40364;52.270;10.546;2023-01-24T09:54:54;7.63;;;4.18;;
54454;SDS011;40364;52.270;10.546;2023-01-24T09:57:26;6.55;;;4.30;;
54454;SDS011;40364;52.270;10.546;2023-01-24T09:59:57;6.93;;;3.83;;
54454;SDS011;40364;52.270;10.546;2023-01-24T10:02:36;8.40;;;3.95;;
54454;SDS011;40364;52.270;10.546;2023-01-24T10:05:03;5.82;;;4.13;;
54454;SDS011;40364;52.270;10.546;2023-01-24T10:07:39;6.18;;;3.72;;
54454;SDS011;40364;52.270;10.546;2023-01-24T10:10:32;5.57;;;3.63;;
54454;SDS011;40364;52.270;10.546;2023-01-24T10:13:09;6.32;;;3.97;;
54454;SDS011;40364;52.270;10.546;2023-01-24T10:15:46;7.93;;;4.18;;
54454;SDS011;40364;52.270;10.546;2023-01-24T10:18:23;7.68;;;4.18;;
54454;SDS011;40364;52.270;10.546;2023-01-24T10:21:10;7.53;;;4.35;;
54454;SDS011;40364;52.270;10.546;2023-01-24T10:23:46;8.80;;;4.35;;
54454;SDS011;40364;52.270;10.546;2023-01-24T10:26:17;14.43;;;4.40;;
54454;SDS011;40364;52.270;10.546;2023-01-24T10:28:47;6.80;;;4.28;;
54454;SDS011;40364;52.270;10.546;2023-01-24T10:31:19;7.80;;;4.45;;
54454;SDS011;40364;52.270;10.546;2023-01-24T10:33:50;7.55;;;3.85;;
54454;SDS011;40364;52.270;10.546;2023-01-24T10:36:24;7.22;;;3.40;;
54454;SDS011;40364;52.270;10.546;2023-01-24T10:38:59;5.20;;;3.10;;
54454;SDS011;40364;52.270;10.546;2023-01-24T10:41:29;6.10;;;3.85;;
54454;SDS011;40364;52.270;10.546;2023-01-24T10:43:58;7.32;;;3.58;;
54454;SDS011;40364;52.270;10.546;2023-01-24T10:49:19;5.93;;;3.67;;
54454;SDS011;40364;52.270;10.546;2023-01-24T10:52:08;5.85;;;3.88;;
54454;SDS011;40364;52.270;10.546;2023-01-24T10:54:43;5.40;;;3.53;;
54454;SDS011;40364;52.270;10.546;2023-01-24T10:59:43;6.30;;;3.40;;
54454;SDS011;40364;52.270;10.546;2023-01-24T11:02:17;9.15;;;3.92;;
54454;SDS011;40364;52.270;10.546;2023-01-24T11:04:46;7.30;;;3.83;;
54454;SDS011;40364;52.270;10.546;2023-01-24T11:07:23;7.78;;;3.58;;
54454;SDS011;40364;52.270;10.546;2023-01-24T11:09:54;8.50;;;3.95;;
54454;SDS011;40364;52.270;10.546;2023-01-24T11:12:20;5.95;;;3.15;;
54454;SDS011;40364;52.270;10.546;2023-01-24T11:14:47;6.55;;;3.42;;
54454;SDS011;40364;52.270;10.546;2023-01-24T11:17:28;5.65;;;3.50;;
54454;SDS011;40364;52.270;10.546;2023-01-24T11:19:57;7.45;;;3.63;;
54454;SDS011;40364;52.270;10.546;2023-01-24T11:22:27;6.90;;;3.33;;
54454;SDS011;40364;52.270;10.546;2023-01-24T11:25:00;6.45;;;3.22;;
54454;SDS011;40364;52.270;10.546;2023-01-24T11:27:29;6.05;;;2.92;;
54454;SDS011;40364;52.270;10.546;2023-01-24T11:30:07;5.55;;;3.00;;
54454;SDS011;40364;52.270;10.546;2023-01-24T11:32:44;5.95;;;3.50;;
54454;SDS011;40364;52.270;10.546;2023-01-24T11:35:23;8.02;;;4.07;;
54454;SDS011;40364;52.270;10.546;2023-01-24T11:38:04;7.07;;;3.70;;
54454;SDS011;40364;52.270;10.546;2023-01-24T11:40:41;5.88;;;3.20;;
54454;SDS011;40364;52.270;10.546;2023-01-24T11:43:18;6.00;;;3.38;;
54454;SDS011;40364;52.270;10.546;2023-01-24T11:45:55;6.50;;;3.30;;
54454;SDS011;40364;52.270;10.546;2023-01-24T11:48:34;4.82;;;3.17;;
54454;SDS011;40364;52.270;10.546;2023-01-24T11:51:09;5.57;;;3.13;;
54454;SDS011;40364;52.270;10.546;2023-01-24T11:53:52;4.82;;;3.13;;
54454;SDS011;40364;52.270;10.546;2023-01-24T11:56:32;4.85;;;2.92;;
54454;SDS011;40364;52.270;10.546;2023-01-24T11:59:16;6.90;;;3.55;;
54454;SDS011;40364;52.270;10.546;2023-01-24T12:02:06;5.50;;;3.40;;
54454;SDS011;40364;52.270;10.546;2023-01-24T12:04:57;5.75;;;2.97;;
54454;SDS011;40364;52.270;10.546;2023-01-24T12:07:47;11.25;;;3.88;;
54454;SDS011;40364;52.270;10.546;2023-01-24T12:10:24;10.30;;;3.70;;
54454;SDS011;40364;52.270;10.546;2023-01-24T12:12:57;6.10;;;3.15;;
54454;SDS011;40364;52.270;10.546;2023-01-24T12:15:32;4.57;;;2.90;;
54454;SDS011;40364;52.270;10.546;2023-01-24T12:21:02;4.90;;;3.08;;
54454;SDS011;40364;52.270;10.546;2023-01-24T12:23:39;4.80;;;2.90;;
54454;SDS011;40364;52.270;10.546;2023-01-24T12:26:14;6.75;;;3.45;;
54454;SDS011;40364;52.270;10.546;2023-01-24T12:28:47;4.88;;;2.58;;
54454;SDS011;40364;52.270;10.546;2023-01-24T12:31:22;6.43;;;3.17;;
54454;SDS011;40364;52.270;10.546;2023-01-24T12:33:56;5.43;;;3.05;;
54454;SDS011;40364;52.270;10.546;2023-01-24T12:36:37;5.72;;;3.22;;
54454;SDS011;40364;52.270;10.546;2023-01-24T12:39:11;8.68;;;3.72;;
54454;SDS011;40364;52.270;10.546;2023-01-24T12:41:41;4.47;;;2.78;;
54454;SDS011;40364;52.270;10.546;2023-01-24T12:44:18;4.90;;;3.30;;
54454;SDS011;40364;52.270;10.546;2023-01-24T12:46:56;4.75;;;3.08;;
54454;SDS011;40364;52.270;10.546;2023-01-24T12:49:33;5.57;;;3.67;;
54454;SDS011;40364;52.270;10.546;2023-01-24T12:52:09;6.38;;;3.30;;
54454;SDS011;40364;52.270;10.546;2023-01-24T12:54:48;6.60;;;3.40;;
54454;SDS011;40364;52.270;10.546;2023-01-24T12:57:21;6.78;;;3.88;;
54454;SDS011;40364;52.270;10.546;2023-01-24T12:59:51;6.25;;;3.67;;
54454;SDS011;40364;52.270;10.546;2023-01-24T13:02:28;6.32;;;3.70;;
54454;SDS011;40364;52.270;10.546;2023-01-24T13:05:05;8.60;;;3.65;;
54454;SDS011;40364;52.270;10.546;2023-01-24T13:07:47;9.70;;;3.67;;
54454;SDS011;40364;52.270;10.546;2023-01-24T13:10:21;6.13;;;3.50;;
54454;SDS011;40364;52.270;10.546;2023-01-24T13:13:03;8.23;;;4.13;;
54454;SDS011;40364;52.270;10.546;2023-01-24T13:15:32;12.43;;;4.35;;
54454;SDS011;40364;52.270;10.546;2023-01-24T13:18:11;6.30;;;3.83;;
54454;SDS011;40364;52.270;10.546;2023-01-24T13:23:41;10.60;;;5.05;;
54454;SDS011;40364;52.270;10.546;2023-01-24T13:26:26;5.93;;;3.70;;
54454;SDS011;40364;52.270;10.546;2023-01-24T13:29:14;7.88;;;4.05;;
54454;SDS011;40364;52.270;10.546;2023-01-24T13:31:58;8.40;;;3.97;;
54454;SDS011;40364;52.270;10.546;2023-01-24T13:34:33;7.03;;;4.13;;
54454;SDS011;40364;52.270;10.546;2023-01-24T13:37:02;7.95;;;4.30;;
54454;SDS011;40364;52.270;10.546;2023-01-24T13:39:33;6.78;;;4.10;;
54454;SDS011;40364;52.270;10.546;2023-01-24T13:42:05;9.73;;;3.95;;
54454;SDS011;40364;52.270;10.546;2023-01-24T13:44:44;7.35;;;3.97;;
54454;SDS011;40364;52.270;10.546;2023-01-24T13:50:10;10.02;;;4.10;;
54454;SDS011;40364;52.270;10.546;2023-01-24T13:52:40;7.43;;;4.22;;
54454;SDS011;40364;52.270;10.546;2023-01-24T13:58:29;8.20;;;4.28;;
54454;SDS011;40364;52.270;10.546;2023-01-24T14:00:57;8.65;;;4.10;;
54454;SDS011;40364;52.270;10.546;2023-01-24T14:03:27;7.10;;;4.05;;
54454;SDS011;40364;52.270;10.546;2023-01-24T14:06:04;9.10;;;4.22;;
54454;SDS011;40364;52.270;10.546;2023-01-24T14:08:40;6.97;;;4.35;;
54454;SDS011;40364;52.270;10.546;2023-01-24T14:19:58;7.05;;;4.03;;
54454;SDS011;40364;52.270;10.546;2023-01-24T14:25:20;9.35;;;3.75;;
54454;SDS011;40364;52.270;10.546;2023-01-24T14:28:01;9.20;;;3.80;;
54454;SDS011;40364;52.270;10.546;2023-01-24T14:30:33;5.47;;;3.40;;
54454;SDS011;40364;52.270;10.546;2023-01-24T14:33:04;6.18;;;3.53;;
54454;SDS011;40364;52.270;10.546;2023-01-24T14:35:47;8.90;;;4.35;;
54454;SDS011;40364;52.270;10.546;2023-01-24T14:38:21;7.00;;;3.70;;
54454;SDS011;40364;52.270;10.546;2023-01-24T14:40:48;7.60;;;3.70;;
54454;SDS011;40364;52.270;10.546;2023-01-24T14:43:18;5.22;;;2.90;;
54454;SDS011;40364;52.270;10.546;2023-01-24T14:45:46;5.53;;;3.65;;
54454;SDS011;40364;52.270;10.546;2023-01-24T14:48:16;4.88;;;3.50;;
54454;SDS011;40364;52.270;10.546;2023-01-24T14:50:55;7.03;;;4.00;;
54454;SDS011;40364;52.270;10.546;2023-01-24T14:53:23;5.95;;;3.13;;
54454;SDS011;40364;52.270;10.546;2023-01-24T14:55:52;7.88;;;3.95;;
54454;SDS011;40364;52.270;10.546;2023-01-24T14:58:22;6.95;;;3.50;;
54454;SDS011;40364;52.270;10.546;2023-01-24T15:00:51;7.38;;;3.47;;
54454;SDS011;40364;52.270;10.546;2023-01-24T15:03:20;8.75;;;4.40;;
54454;SDS011;40364;52.270;10.546;2023-01-24T15:05:50;6.13;;;3.53;;
54454;SDS011;40364;52.270;10.546;2023-01-24T15:08:19;7.10;;;3.88;;
54454;SDS011;40364;52.270;10.546;2023-01-24T15:10:51;6.65;;;3.58;;
54454;SDS011;40364;52.270;10.546;2023-01-24T15:13:27;6.68;;;3.40;;
54454;SDS011;40364;52.270;10.546;2023-01-24T15:15:57;5.40;;;2.90;;
54454;SDS011;40364;52.270;10.546;2023-01-24T15:21:21;7.63;;;4.05;;
54454;SDS011;40364;52.270;10.546;2023-01-24T15:23:54;5.60;;;3.28;;
54454;SDS011;40364;52.270;10.546;2023-01-24T15:26:33;6.78;;;3.55;;